sensor_id;sensor_type;location;lat;lon;timestamp;temperature;humidity
33580;DHT22;19909;43.644;-79.438;2023-08-30T00:00:57;21.40;60.50
33580;DHT22;19909;43.644;-79.438;2023-08-30T00:03:24;21.30;60.00
33580;DHT22;19909;43.644;-79.438;2023-08-30T00:05:50;21.40;59.90
33580;DHT22;19909;43.644;-79.438;2023-08-30T00:08:16;21.30;59.80
33580;DHT22;19909;43.644;-79.438;2023-08-30T00:10:46;21.30;59.70
33580;DHT22;19909;43.644;-79.438;2023-08-30T00:13:13;21.30;59.80
33580;DHT22;19909;43.644;-79.438;2023-08-30T00:15:39;21.30;60.40
33580;DHT22;19909;43.644;-79.438;2023-08-30T00:18:05;21.30;61.60
33580;DHT22;19909;43.644;-79.438;2023-08-30T00:20:31;21.30;62.00
33580;DHT22;19909;43.644;-79.438;2023-08-30T00:22:58;21.30;62.40
33580;DHT22;19909;43.644;-79.438;2023-08-30T00:25:24;21.30;61.70
33580;DHT22;19909;43.644;-79.438;2023-08-30T00:27:50;21.30;61.00
33580;DHT22;19909;43.644;-79.438;2023-08-30T00:30:16;21.30;60.70
33580;DHT22;19909;43.644;-79.438;2023-08-30T00:32:42;21.30;60.10
33580;DHT22;19909;43.644;-79.438;2023-08-30T00:35:10;21.30;59.90
33580;DHT22;19909;43.644;-79.438;2023-08-30T00:37:36;21.20;59.70
33580;DHT22;19909;43.644;-79.438;2023-08-30T00:40:02;21.20;59.50
33580;DHT22;19909;43.644;-79.438;2023-08-30T00:42:29;21.20;59.30
33580;DHT22;19909;43.644;-79.438;2023-08-30T00:44:55;21.20;59.90
33580;DHT22;19909;43.644;-79.438;2023-08-30T00:47:21;21.10;60.40
33580;DHT22;19909;43.644;-79.438;2023-08-30T00:49:47;21.10;61.10
33580;DHT22;19909;43.644;-79.438;2023-08-30T00:52:14;21.20;62.90
33580;DHT22;19909;43.644;-79.438;2023-08-30T00:54:41;21.20;62.10
33580;DHT22;19909;43.644;-79.438;2023-08-30T00:57:07;21.30;61.40
33580;DHT22;19909;43.644;-79.438;2023-08-30T00:59:34;21.30;60.60
33580;DHT22;19909;43.644;-79.438;2023-08-30T01:02:01;21.30;60.30
33580;DHT22;19909;43.644;-79.438;2023-08-30T01:04:28;21.20;60.20
33580;DHT22;19909;43.644;-79.438;2023-08-30T01:06:54;21.20;60.40
33580;DHT22;19909;43.644;-79.438;2023-08-30T01:09:20;21.20;60.10
33580;DHT22;19909;43.644;-79.438;2023-08-30T01:17:07;21.20;60.20
33580;DHT22;19909;43.644;-79.438;2023-08-30T01:22:21;21.20;61.80
33580;DHT22;19909;43.644;-79.438;2023-08-30T01:27:42;21.30;63.70
33580;DHT22;19909;43.644;-79.438;2023-08-30T01:30:10;21.40;63.50
33580;DHT22;19909;43.644;-79.438;2023-08-30T01:32:38;21.40;62.80
33580;DHT22;19909;43.644;-79.438;2023-08-30T01:35:05;21.40;62.00
33580;DHT22;19909;43.644;-79.438;2023-08-30T01:37:33;21.40;61.50
33580;DHT22;19909;43.644;-79.438;2023-08-30T01:40:00;21.30;61.40
33580;DHT22;19909;43.644;-79.438;2023-08-30T01:42:27;21.30;61.00
33580;DHT22;19909;43.644;-79.438;2023-08-30T01:44:56;21.30;60.80
33580;DHT22;19909;43.644;-79.438;2023-08-30T01:47:28;21.30;60.60
33580;DHT22;19909;43.644;-79.438;2023-08-30T01:49:56;21.20;60.40
33580;DHT22;19909;43.644;-79.438;2023-08-30T01:52:23;21.20;60.50
33580;DHT22;19909;43.644;-79.438;2023-08-30T01:54:51;21.20;60.50
33580;DHT22;19909;43.644;-79.438;2023-08-30T01:57:19;21.20;60.30
33580;DHT22;19909;43.644;-79.438;2023-08-30T01:59:46;21.20;60.30
33580;DHT22;19909;43.644;-79.438;2023-08-30T02:02:12;21.10;60.00
33580;DHT22;19909;43.644;-79.438;2023-08-30T02:04:38;21.10;59.80
33580;DHT22;19909;43.644;-79.438;2023-08-30T02:07:25;21.10;59.50
33580;DHT22;19909;43.644;-79.438;2023-08-30T02:10:12;21.00;59.20
33580;DHT22;19909;43.644;-79.438;2023-08-30T02:12:47;21.00;58.90
33580;DHT22;19909;43.644;-79.438;2023-08-30T02:15:16;20.90;58.70
33580;DHT22;19909;43.644;-79.438;2023-08-30T02:17:43;20.90;58.80
33580;DHT22;19909;43.644;-79.438;2023-08-30T02:20:10;20.90;58.80
33580;DHT22;19909;43.644;-79.438;2023-08-30T02:22:36;20.90;58.70
33580;DHT22;19909;43.644;-79.438;2023-08-30T02:25:02;20.80;58.70
33580;DHT22;19909;43.644;-79.438;2023-08-30T02:27:32;20.80;58.70
33580;DHT22;19909;43.644;-79.438;2023-08-30T02:29:59;20.70;58.70
33580;DHT22;19909;43.644;-79.438;2023-08-30T02:32:25;20.70;58.50
33580;DHT22;19909;43.644;-79.438;2023-08-30T02:34:52;20.70;58.50
33580;DHT22;19909;43.644;-79.438;2023-08-30T02:37:19;20.70;58.50
33580;DHT22;19909;43.644;-79.438;2023-08-30T02:39:45;20.60;58.60
33580;DHT22;19909;43.644;-79.438;2023-08-30T02:42:12;20.60;58.60
33580;DHT22;19909;43.644;-79.438;2023-08-30T02:44:38;20.60;58.80
33580;DHT22;19909;43.644;-79.438;2023-08-30T02:47:04;20.60;58.90
33580;DHT22;19909;43.644;-79.438;2023-08-30T02:49:30;20.50;58.90
33580;DHT22;19909;43.644;-79.438;2023-08-30T02:51:56;20.50;58.80
33580;DHT22;19909;43.644;-79.438;2023-08-30T02:54:22;20.50;59.20
33580;DHT22;19909;43.644;-79.438;2023-08-30T02:56:49;20.50;59.90
33580;DHT22;19909;43.644;-79.438;2023-08-30T02:59:15;20.50;60.00
33580;DHT22;19909;43.644;-79.438;2023-08-30T03:01:41;20.50;61.10
33580;DHT22;19909;43.644;-79.438;2023-08-30T03:04:08;20.60;61.20
33580;DHT22;19909;43.644;-79.438;2023-08-30T03:06:35;20.70;60.50
33580;DHT22;19909;43.644;-79.438;2023-08-30T03:09:02;20.70;60.20
33580;DHT22;19909;43.644;-79.438;2023-08-30T03:11:28;20.70;59.80
33580;DHT22;19909;43.644;-79.438;2023-08-30T03:13:55;20.60;59.40
33580;DHT22;19909;43.644;-79.438;2023-08-30T03:16:21;20.60;59.40
33580;DHT22;19909;43.644;-79.438;2023-08-30T03:18:50;20.60;59.20
33580;DHT22;19909;43.644;-79.438;2023-08-30T03:21:16;20.60;59.10
33580;DHT22;19909;43.644;-79.438;2023-08-30T03:23:42;20.50;58.90
33580;DHT22;19909;43.644;-79.438;2023-08-30T03:26:12;20.50;59.10
33580;DHT22;19909;43.644;-79.438;2023-08-30T03:28:39;20.40;59.10
33580;DHT22;19909;43.644;-79.438;2023-08-30T03:31:16;20.40;59.50
33580;DHT22;19909;43.644;-79.438;2023-08-30T03:33:45;20.40;60.40
33580;DHT22;19909;43.644;-79.438;2023-08-30T03:36:13;20.50;64.00
33580;DHT22;19909;43.644;-79.438;2023-08-30T03:38:40;20.50;63.20
33580;DHT22;19909;43.644;-79.438;2023-08-30T03:41:07;20.60;63.90
33580;DHT22;19909;43.644;-79.438;2023-08-30T03:43:34;20.60;64.40
33580;DHT22;19909;43.644;-79.438;2023-08-30T03:46:03;20.70;64.80
33580;DHT22;19909;43.644;-79.438;2023-08-30T03:48:31;20.80;65.80
33580;DHT22;19909;43.644;-79.438;2023-08-30T03:50:58;20.80;64.90
33580;DHT22;19909;43.644;-79.438;2023-08-30T03:53:25;20.80;65.00
33580;DHT22;19909;43.644;-79.438;2023-08-30T03:55:51;20.90;65.40
33580;DHT22;19909;43.644;-79.438;2023-08-30T03:58:20;21.00;65.70
33580;DHT22;19909;43.644;-79.438;2023-08-30T04:00:49;21.00;65.70
33580;DHT22;19909;43.644;-79.438;2023-08-30T04:03:16;21.10;65.90
33580;DHT22;19909;43.644;-79.438;2023-08-30T04:05:42;21.10;65.90
33580;DHT22;19909;43.644;-79.438;2023-08-30T04:08:09;21.10;66.00
33580;DHT22;19909;43.644;-79.438;2023-08-30T04:10:39;21.20;66.10
33580;DHT22;19909;43.644;-79.438;2023-08-30T04:13:07;21.20;66.30
33580;DHT22;19909;43.644;-79.438;2023-08-30T04:15:35;21.20;66.70
33580;DHT22;19909;43.644;-79.438;2023-08-30T04:18:06;21.30;66.80
33580;DHT22;19909;43.644;-79.438;2023-08-30T04:20:33;21.30;66.90
33580;DHT22;19909;43.644;-79.438;2023-08-30T04:23:00;21.30;66.90
33580;DHT22;19909;43.644;-79.438;2023-08-30T04:25:29;21.40;67.10
33580;DHT22;19909;43.644;-79.438;2023-08-30T04:27:56;21.40;67.10
33580;DHT22;19909;43.644;-79.438;2023-08-30T04:30:22;21.40;67.20
33580;DHT22;19909;43.644;-79.438;2023-08-30T04:32:48;21.40;67.20
33580;DHT22;19909;43.644;-79.438;2023-08-30T04:35:14;21.40;67.20
33580;DHT22;19909;43.644;-79.438;2023-08-30T04:37:41;21.40;67.20
33580;DHT22;19909;43.644;-79.438;2023-08-30T04:40:09;21.50;67.20
33580;DHT22;19909;43.644;-79.438;2023-08-30T04:42:36;21.50;67.20
33580;DHT22;19909;43.644;-79.438;2023-08-30T04:45:02;21.50;67.40
33580;DHT22;19909;43.644;-79.438;2023-08-30T04:47:29;21.50;67.50
33580;DHT22;19909;43.644;-79.438;2023-08-30T04:49:56;21.50;67.40
33580;DHT22;19909;43.644;-79.438;2023-08-30T04:52:22;21.50;67.60
33580;DHT22;19909;43.644;-79.438;2023-08-30T04:54:49;21.60;67.40
33580;DHT22;19909;43.644;-79.438;2023-08-30T04:57:15;21.60;67.40
33580;DHT22;19909;43.644;-79.438;2023-08-30T04:59:43;21.60;67.40
33580;DHT22;19909;43.644;-79.438;2023-08-30T05:02:09;21.60;67.30
33580;DHT22;19909;43.644;-79.438;2023-08-30T05:04:36;21.60;67.20
33580;DHT22;19909;43.644;-79.438;2023-08-30T05:07:02;21.60;67.10
33580;DHT22;19909;43.644;-79.438;2023-08-30T05:09:30;21.70;67.10
33580;DHT22;19909;43.644;-79.438;2023-08-30T05:11:56;21.70;67.10
33580;DHT22;19909;43.644;-79.438;2023-08-30T05:14:23;21.70;66.90
33580;DHT22;19909;43.644;-79.438;2023-08-30T05:16:49;21.70;67.20
33580;DHT22;19909;43.644;-79.438;2023-08-30T05:19:16;21.70;67.20
33580;DHT22;19909;43.644;-79.438;2023-08-30T05:21:43;21.70;67.20
33580;DHT22;19909;43.644;-79.438;2023-08-30T05:24:09;21.70;67.10
33580;DHT22;19909;43.644;-79.438;2023-08-30T05:26:36;21.70;67.10
33580;DHT22;19909;43.644;-79.438;2023-08-30T05:29:03;21.70;67.10
33580;DHT22;19909;43.644;-79.438;2023-08-30T05:31:29;21.80;67.00
33580;DHT22;19909;43.644;-79.438;2023-08-30T05:33:55;21.80;67.20
33580;DHT22;19909;43.644;-79.438;2023-08-30T05:36:21;21.80;67.10
33580;DHT22;19909;43.644;-79.438;2023-08-30T05:38:47;21.80;67.10
33580;DHT22;19909;43.644;-79.438;2023-08-30T05:41:14;21.80;67.00
33580;DHT22;19909;43.644;-79.438;2023-08-30T05:43:40;21.80;66.90
33580;DHT22;19909;43.644;-79.438;2023-08-30T05:46:06;21.80;66.80
33580;DHT22;19909;43.644;-79.438;2023-08-30T05:48:38;21.70;67.00
33580;DHT22;19909;43.644;-79.438;2023-08-30T05:51:04;21.80;66.90
33580;DHT22;19909;43.644;-79.438;2023-08-30T05:53:30;21.70;67.20
33580;DHT22;19909;43.644;-79.438;2023-08-30T05:55:56;21.80;67.10
33580;DHT22;19909;43.644;-79.438;2023-08-30T05:58:22;21.80;67.20
33580;DHT22;19909;43.644;-79.438;2023-08-30T06:00:48;21.80;67.20
33580;DHT22;19909;43.644;-79.438;2023-08-30T06:03:14;21.80;67.80
33580;DHT22;19909;43.644;-79.438;2023-08-30T06:05:41;21.80;67.00
33580;DHT22;19909;43.644;-79.438;2023-08-30T06:08:08;21.80;67.00
33580;DHT22;19909;43.644;-79.438;2023-08-30T06:10:36;21.80;66.90
33580;DHT22;19909;43.644;-79.438;2023-08-30T06:13:02;21.80;66.70
33580;DHT22;19909;43.644;-79.438;2023-08-30T06:15:28;21.80;66.70
33580;DHT22;19909;43.644;-79.438;2023-08-30T06:17:55;21.80;67.50
33580;DHT22;19909;43.644;-79.438;2023-08-30T06:20:21;21.80;67.00
33580;DHT22;19909;43.644;-79.438;2023-08-30T06:22:47;21.80;66.90
33580;DHT22;19909;43.644;-79.438;2023-08-30T06:25:13;21.80;66.90
33580;DHT22;19909;43.644;-79.438;2023-08-30T06:27:42;21.80;66.80
33580;DHT22;19909;43.644;-79.438;2023-08-30T06:30:10;21.80;66.90
33580;DHT22;19909;43.644;-79.438;2023-08-30T06:32:36;21.80;66.90
33580;DHT22;19909;43.644;-79.438;2023-08-30T06:35:03;21.80;66.70
33580;DHT22;19909;43.644;-79.438;2023-08-30T06:37:29;21.80;66.70
33580;DHT22;19909;43.644;-79.438;2023-08-30T06:39:56;21.80;66.70
33580;DHT22;19909;43.644;-79.438;2023-08-30T06:42:22;21.80;66.60
33580;DHT22;19909;43.644;-79.438;2023-08-30T06:44:50;21.80;66.50
33580;DHT22;19909;43.644;-79.438;2023-08-30T06:47:16;21.80;66.50
33580;DHT22;19909;43.644;-79.438;2023-08-30T06:49:42;21.80;66.60
33580;DHT22;19909;43.644;-79.438;2023-08-30T06:52:08;21.80;66.60
33580;DHT22;19909;43.644;-79.438;2023-08-30T06:54:35;21.80;66.60
33580;DHT22;19909;43.644;-79.438;2023-08-30T06:57:02;21.80;66.60
33580;DHT22;19909;43.644;-79.438;2023-08-30T06:59:28;21.80;66.60
33580;DHT22;19909;43.644;-79.438;2023-08-30T07:01:54;21.80;66.50
33580;DHT22;19909;43.644;-79.438;2023-08-30T07:04:20;21.80;66.40
33580;DHT22;19909;43.644;-79.438;2023-08-30T07:06:47;21.80;66.50
33580;DHT22;19909;43.644;-79.438;2023-08-30T07:09:13;21.90;66.50
33580;DHT22;19909;43.644;-79.438;2023-08-30T07:11:41;21.80;66.40
33580;DHT22;19909;43.644;-79.438;2023-08-30T07:14:09;21.80;66.30
33580;DHT22;19909;43.644;-79.438;2023-08-30T07:16:36;21.80;66.10
33580;DHT22;19909;43.644;-79.438;2023-08-30T07:19:02;21.80;66.30
33580;DHT22;19909;43.644;-79.438;2023-08-30T07:21:28;21.80;66.30
33580;DHT22;19909;43.644;-79.438;2023-08-30T07:23:55;21.80;66.30
33580;DHT22;19909;43.644;-79.438;2023-08-30T07:26:21;21.80;66.30
33580;DHT22;19909;43.644;-79.438;2023-08-30T07:28:47;21.80;66.50
33580;DHT22;19909;43.644;-79.438;2023-08-30T07:31:13;21.80;66.30
33580;DHT22;19909;43.644;-79.438;2023-08-30T07:33:44;21.90;66.40
33580;DHT22;19909;43.644;-79.438;2023-08-30T07:36:10;21.80;66.40
33580;DHT22;19909;43.644;-79.438;2023-08-30T07:38:38;21.80;66.30
33580;DHT22;19909;43.644;-79.438;2023-08-30T07:41:04;21.80;66.30
33580;DHT22;19909;43.644;-79.438;2023-08-30T07:43:30;21.90;66.10
33580;DHT22;19909;43.644;-79.438;2023-08-30T07:45:57;21.80;66.00
33580;DHT22;19909;43.644;-79.438;2023-08-30T07:48:24;21.80;66.10
33580;DHT22;19909;43.644;-79.438;2023-08-30T07:50:50;21.80;66.30
33580;DHT22;19909;43.644;-79.438;2023-08-30T07:53:16;21.80;66.30
33580;DHT22;19909;43.644;-79.438;2023-08-30T07:55:42;21.80;66.30
33580;DHT22;19909;43.644;-79.438;2023-08-30T07:58:13;21.80;66.20
33580;DHT22;19909;43.644;-79.438;2023-08-30T08:00:39;21.80;66.40
33580;DHT22;19909;43.644;-79.438;2023-08-30T08:03:06;21.80;67.00
33580;DHT22;19909;43.644;-79.438;2023-08-30T08:05:32;21.80;66.20
33580;DHT22;19909;43.644;-79.438;2023-08-30T08:08:00;21.80;66.30
33580;DHT22;19909;43.644;-79.438;2023-08-30T08:10:33;21.80;66.30
33580;DHT22;19909;43.644;-79.438;2023-08-30T08:13:00;21.80;66.20
33580;DHT22;19909;43.644;-79.438;2023-08-30T08:15:26;21.80;66.00
33580;DHT22;19909;43.644;-79.438;2023-08-30T08:17:52;21.80;66.10
33580;DHT22;19909;43.644;-79.438;2023-08-30T08:20:18;21.80;66.20
33580;DHT22;19909;43.644;-79.438;2023-08-30T08:22:45;21.80;67.00
33580;DHT22;19909;43.644;-79.438;2023-08-30T08:25:11;21.80;66.30
33580;DHT22;19909;43.644;-79.438;2023-08-30T08:27:37;21.80;66.20
33580;DHT22;19909;43.644;-79.438;2023-08-30T08:30:04;21.80;66.20
33580;DHT22;19909;43.644;-79.438;2023-08-30T08:32:31;21.80;66.20
33580;DHT22;19909;43.644;-79.438;2023-08-30T08:34:57;21.80;66.20
33580;DHT22;19909;43.644;-79.438;2023-08-30T08:37:24;21.80;66.20
33580;DHT22;19909;43.644;-79.438;2023-08-30T08:39:50;21.80;66.20
33580;DHT22;19909;43.644;-79.438;2023-08-30T08:42:19;21.80;66.10
33580;DHT22;19909;43.644;-79.438;2023-08-30T08:44:50;21.80;66.00
33580;DHT22;19909;43.644;-79.438;2023-08-30T08:47:17;21.80;66.00
33580;DHT22;19909;43.644;-79.438;2023-08-30T08:49:45;21.80;65.90
33580;DHT22;19909;43.644;-79.438;2023-08-30T08:52:11;21.80;66.10
33580;DHT22;19909;43.644;-79.438;2023-08-30T08:54:41;21.80;66.10
33580;DHT22;19909;43.644;-79.438;2023-08-30T08:57:08;21.80;66.00
33580;DHT22;19909;43.644;-79.438;2023-08-30T08:59:34;21.80;66.00
33580;DHT22;19909;43.644;-79.438;2023-08-30T09:02:04;21.80;66.00
33580;DHT22;19909;43.644;-79.438;2023-08-30T09:04:30;21.80;65.90
33580;DHT22;19909;43.644;-79.438;2023-08-30T09:06:58;21.80;66.00
33580;DHT22;19909;43.644;-79.438;2023-08-30T09:09:26;21.80;66.00
33580;DHT22;19909;43.644;-79.438;2023-08-30T09:11:52;21.80;65.90
33580;DHT22;19909;43.644;-79.438;2023-08-30T09:14:19;21.80;65.90
33580;DHT22;19909;43.644;-79.438;2023-08-30T09:16:58;21.80;65.80
33580;DHT22;19909;43.644;-79.438;2023-08-30T09:19:26;21.80;65.80
33580;DHT22;19909;43.644;-79.438;2023-08-30T09:21:59;21.80;65.90
33580;DHT22;19909;43.644;-79.438;2023-08-30T09:24:25;21.80;65.90
33580;DHT22;19909;43.644;-79.438;2023-08-30T09:26:53;21.80;65.90
33580;DHT22;19909;43.644;-79.438;2023-08-30T09:29:21;21.80;65.80
33580;DHT22;19909;43.644;-79.438;2023-08-30T09:31:53;21.70;65.80
33580;DHT22;19909;43.644;-79.438;2023-08-30T09:34:25;21.80;65.80
33580;DHT22;19909;43.644;-79.438;2023-08-30T09:36:52;21.80;65.90
33580;DHT22;19909;43.644;-79.438;2023-08-30T09:39:19;21.80;65.90
33580;DHT22;19909;43.644;-79.438;2023-08-30T09:41:49;21.80;65.90
33580;DHT22;19909;43.644;-79.438;2023-08-30T09:44:18;21.80;65.90
33580;DHT22;19909;43.644;-79.438;2023-08-30T09:46:50;21.80;65.80
33580;DHT22;19909;43.644;-79.438;2023-08-30T09:49:19;21.80;65.80
33580;DHT22;19909;43.644;-79.438;2023-08-30T09:51:47;21.70;65.80
33580;DHT22;19909;43.644;-79.438;2023-08-30T09:54:18;21.80;65.80
33580;DHT22;19909;43.644;-79.438;2023-08-30T09:56:46;21.70;65.70
33580;DHT22;19909;43.644;-79.438;2023-08-30T09:59:13;21.80;65.80
33580;DHT22;19909;43.644;-79.438;2023-08-30T10:01:41;21.80;65.70
33580;DHT22;19909;43.644;-79.438;2023-08-30T10:04:08;21.80;65.70
33580;DHT22;19909;43.644;-79.438;2023-08-30T10:06:39;21.80;65.70
33580;DHT22;19909;43.644;-79.438;2023-08-30T10:09:07;21.80;65.80
33580;DHT22;19909;43.644;-79.438;2023-08-30T10:11:37;21.80;65.80
33580;DHT22;19909;43.644;-79.438;2023-08-30T10:14:05;21.70;65.70
33580;DHT22;19909;43.644;-79.438;2023-08-30T10:16:44;21.70;65.60
33580;DHT22;19909;43.644;-79.438;2023-08-30T10:19:29;21.70;65.70
33580;DHT22;19909;43.644;-79.438;2023-08-30T10:22:05;21.70;65.70
33580;DHT22;19909;43.644;-79.438;2023-08-30T10:24:44;21.70;65.70
33580;DHT22;19909;43.644;-79.438;2023-08-30T10:27:11;21.80;65.80
33580;DHT22;19909;43.644;-79.438;2023-08-30T10:29:41;21.70;65.70
33580;DHT22;19909;43.644;-79.438;2023-08-30T10:32:08;21.80;65.80
33580;DHT22;19909;43.644;-79.438;2023-08-30T10:34:35;21.70;65.70
33580;DHT22;19909;43.644;-79.438;2023-08-30T10:37:12;21.80;65.80
33580;DHT22;19909;43.644;-79.438;2023-08-30T10:39:42;21.70;65.70
33580;DHT22;19909;43.644;-79.438;2023-08-30T10:42:12;21.70;66.40
33580;DHT22;19909;43.644;-79.438;2023-08-30T10:45:02;21.80;65.70
33580;DHT22;19909;43.644;-79.438;2023-08-30T10:47:34;21.70;65.70
33580;DHT22;19909;43.644;-79.438;2023-08-30T10:50:06;21.70;65.70
33580;DHT22;19909;43.644;-79.438;2023-08-30T10:52:33;21.70;65.70
33580;DHT22;19909;43.644;-79.438;2023-08-30T10:55:14;21.70;65.60
33580;DHT22;19909;43.644;-79.438;2023-08-30T10:57:45;21.80;65.60
33580;DHT22;19909;43.644;-79.438;2023-08-30T11:02:59;21.80;65.60
33580;DHT22;19909;43.644;-79.438;2023-08-30T11:05:26;21.80;65.50
33580;DHT22;19909;43.644;-79.438;2023-08-30T11:07:53;21.80;65.60
33580;DHT22;19909;43.644;-79.438;2023-08-30T11:10:21;21.80;65.70
33580;DHT22;19909;43.644;-79.438;2023-08-30T11:12:48;21.80;65.60
33580;DHT22;19909;43.644;-79.438;2023-08-30T11:15:18;21.80;65.50
33580;DHT22;19909;43.644;-79.438;2023-08-30T11:17:44;21.80;65.50
33580;DHT22;19909;43.644;-79.438;2023-08-30T11:20:15;21.80;65.50
33580;DHT22;19909;43.644;-79.438;2023-08-30T11:22:47;21.80;65.40
33580;DHT22;19909;43.644;-79.438;2023-08-30T11:25:14;21.80;65.40
33580;DHT22;19909;43.644;-79.438;2023-08-30T11:27:41;21.80;65.30
33580;DHT22;19909;43.644;-79.438;2023-08-30T11:30:09;21.80;65.20
33580;DHT22;19909;43.644;-79.438;2023-08-30T11:32:40;21.80;65.10
33580;DHT22;19909;43.644;-79.438;2023-08-30T11:35:08;21.80;65.10
33580;DHT22;19909;43.644;-79.438;2023-08-30T11:37:35;21.90;65.20
33580;DHT22;19909;43.644;-79.438;2023-08-30T11:40:03;21.90;65.20
33580;DHT22;19909;43.644;-79.438;2023-08-30T11:42:30;21.90;64.90
33580;DHT22;19909;43.644;-79.438;2023-08-30T11:44:58;21.90;64.90
33580;DHT22;19909;43.644;-79.438;2023-08-30T11:47:28;21.90;64.80
33580;DHT22;19909;43.644;-79.438;2023-08-30T11:49:56;21.90;64.80
33580;DHT22;19909;43.644;-79.438;2023-08-30T11:52:24;21.90;64.60
33580;DHT22;19909;43.644;-79.438;2023-08-30T11:54:51;22.00;64.60
33580;DHT22;19909;43.644;-79.438;2023-08-30T11:57:17;21.90;64.60
33580;DHT22;19909;43.644;-79.438;2023-08-30T11:59:43;22.00;64.60
33580;DHT22;19909;43.644;-79.438;2023-08-30T12:02:12;21.90;64.60
33580;DHT22;19909;43.644;-79.438;2023-08-30T12:04:43;22.00;64.50
33580;DHT22;19909;43.644;-79.438;2023-08-30T12:07:24;22.00;64.50
33580;DHT22;19909;43.644;-79.438;2023-08-30T12:09:51;22.00;64.50
33580;DHT22;19909;43.644;-79.438;2023-08-30T12:12:18;22.00;64.60
33580;DHT22;19909;43.644;-79.438;2023-08-30T12:14:44;22.00;64.50
33580;DHT22;19909;43.644;-79.438;2023-08-30T12:17:10;22.00;64.50
33580;DHT22;19909;43.644;-79.438;2023-08-30T12:19:40;22.00;64.40
33580;DHT22;19909;43.644;-79.438;2023-08-30T12:22:07;22.00;64.40
33580;DHT22;19909;43.644;-79.438;2023-08-30T12:24:46;22.00;64.40
33580;DHT22;19909;43.644;-79.438;2023-08-30T12:27:13;22.00;64.30
33580;DHT22;19909;43.644;-79.438;2023-08-30T12:29:39;22.00;64.20
33580;DHT22;19909;43.644;-79.438;2023-08-30T12:32:06;22.00;64.70
33580;DHT22;19909;43.644;-79.438;2023-08-30T12:34:33;22.00;64.20
33580;DHT22;19909;43.644;-79.438;2023-08-30T12:36:59;22.00;64.40
33580;DHT22;19909;43.644;-79.438;2023-08-30T12:39:27;22.00;64.20
33580;DHT22;19909;43.644;-79.438;2023-08-30T12:41:53;22.00;64.20
33580;DHT22;19909;43.644;-79.438;2023-08-30T12:44:20;22.00;64.20
33580;DHT22;19909;43.644;-79.438;2023-08-30T12:46:46;22.00;64.90
33580;DHT22;19909;43.644;-79.438;2023-08-30T12:49:12;22.00;64.10
33580;DHT22;19909;43.644;-79.438;2023-08-30T12:51:38;22.00;64.10
33580;DHT22;19909;43.644;-79.438;2023-08-30T12:54:04;22.00;64.00
33580;DHT22;19909;43.644;-79.438;2023-08-30T12:56:30;22.00;64.00
33580;DHT22;19909;43.644;-79.438;2023-08-30T12:58:56;22.00;64.10
33580;DHT22;19909;43.644;-79.438;2023-08-30T13:01:22;22.00;64.00
33580;DHT22;19909;43.644;-79.438;2023-08-30T13:03:50;22.00;64.00
33580;DHT22;19909;43.644;-79.438;2023-08-30T13:06:16;22.00;64.00
33580;DHT22;19909;43.644;-79.438;2023-08-30T13:08:42;22.00;63.90
33580;DHT22;19909;43.644;-79.438;2023-08-30T13:11:08;22.00;63.80
33580;DHT22;19909;43.644;-79.438;2023-08-30T13:13:34;22.00;63.90
33580;DHT22;19909;43.644;-79.438;2023-08-30T13:16:00;22.00;63.80
33580;DHT22;19909;43.644;-79.438;2023-08-30T13:18:26;22.00;63.80
33580;DHT22;19909;43.644;-79.438;2023-08-30T13:20:55;22.00;63.80
33580;DHT22;19909;43.644;-79.438;2023-08-30T13:23:21;22.00;63.70
33580;DHT22;19909;43.644;-79.438;2023-08-30T13:25:48;22.00;63.70
33580;DHT22;19909;43.644;-79.438;2023-08-30T13:28:14;22.00;63.70
33580;DHT22;19909;43.644;-79.438;2023-08-30T13:30:44;22.00;63.70
33580;DHT22;19909;43.644;-79.438;2023-08-30T13:33:11;22.00;63.70
33580;DHT22;19909;43.644;-79.438;2023-08-30T13:35:39;22.00;63.70
33580;DHT22;19909;43.644;-79.438;2023-08-30T13:38:05;22.00;63.70
33580;DHT22;19909;43.644;-79.438;2023-08-30T13:40:31;22.00;64.40
33580;DHT22;19909;43.644;-79.438;2023-08-30T13:42:58;22.00;63.60
33580;DHT22;19909;43.644;-79.438;2023-08-30T13:45:24;22.00;63.70
33580;DHT22;19909;43.644;-79.438;2023-08-30T13:47:50;22.00;63.50
33580;DHT22;19909;43.644;-79.438;2023-08-30T13:50:18;22.10;63.60
33580;DHT22;19909;43.644;-79.438;2023-08-30T13:52:45;22.10;63.50
33580;DHT22;19909;43.644;-79.438;2023-08-30T13:55:11;22.10;63.40
33580;DHT22;19909;43.644;-79.438;2023-08-30T13:57:37;22.10;63.40
33580;DHT22;19909;43.644;-79.438;2023-08-30T14:00:03;22.10;63.40
33580;DHT22;19909;43.644;-79.438;2023-08-30T14:02:35;22.10;63.40
33580;DHT22;19909;43.644;-79.438;2023-08-30T14:05:02;22.10;63.40
33580;DHT22;19909;43.644;-79.438;2023-08-30T14:07:28;22.10;64.20
33580;DHT22;19909;43.644;-79.438;2023-08-30T14:09:54;22.10;63.40
33580;DHT22;19909;43.644;-79.438;2023-08-30T14:12:21;22.10;63.40
33580;DHT22;19909;43.644;-79.438;2023-08-30T14:14:47;22.10;63.30
33580;DHT22;19909;43.644;-79.438;2023-08-30T14:17:19;22.10;63.30
33580;DHT22;19909;43.644;-79.438;2023-08-30T14:19:46;22.10;63.20
33580;DHT22;19909;43.644;-79.438;2023-08-30T14:22:18;22.10;63.20
33580;DHT22;19909;43.644;-79.438;2023-08-30T14:24:45;22.10;63.00
33580;DHT22;19909;43.644;-79.438;2023-08-30T14:27:12;22.20;63.00
33580;DHT22;19909;43.644;-79.438;2023-08-30T14:29:39;22.20;63.10
33580;DHT22;19909;43.644;-79.438;2023-08-30T14:32:14;22.20;63.00
33580;DHT22;19909;43.644;-79.438;2023-08-30T14:34:40;22.20;63.00
33580;DHT22;19909;43.644;-79.438;2023-08-30T14:37:06;22.20;62.90
33580;DHT22;19909;43.644;-79.438;2023-08-30T14:39:32;22.20;62.80
33580;DHT22;19909;43.644;-79.438;2023-08-30T14:42:02;22.20;62.80
33580;DHT22;19909;43.644;-79.438;2023-08-30T14:44:28;22.20;62.80
33580;DHT22;19909;43.644;-79.438;2023-08-30T14:46:57;22.20;62.70
33580;DHT22;19909;43.644;-79.438;2023-08-30T14:49:24;22.20;62.70
33580;DHT22;19909;43.644;-79.438;2023-08-30T14:51:50;22.20;62.70
33580;DHT22;19909;43.644;-79.438;2023-08-30T14:54:16;22.20;62.80
33580;DHT22;19909;43.644;-79.438;2023-08-30T14:56:42;22.20;62.70
33580;DHT22;19909;43.644;-79.438;2023-08-30T14:59:09;22.20;62.80
33580;DHT22;19909;43.644;-79.438;2023-08-30T15:01:35;22.20;62.90
33580;DHT22;19909;43.644;-79.438;2023-08-30T15:04:01;22.20;62.90
33580;DHT22;19909;43.644;-79.438;2023-08-30T15:06:27;22.20;62.90
33580;DHT22;19909;43.644;-79.438;2023-08-30T15:08:54;22.20;63.00
33580;DHT22;19909;43.644;-79.438;2023-08-30T15:11:20;22.20;63.00
33580;DHT22;19909;43.644;-79.438;2023-08-30T15:13:46;22.20;62.90
33580;DHT22;19909;43.644;-79.438;2023-08-30T15:16:12;22.20;62.80
33580;DHT22;19909;43.644;-79.438;2023-08-30T15:18:38;22.30;62.80